Time;durP1;ratioP1;P1;durP2;ratioP2;P2;SDS_P1;SDS_P2;PMS_P1;PMS_P2;Temp;Humidity;BMP_temperature;BMP_pressure;BME280_temperature;BME280_humidity;BME280_pressure;Samples;Min_cycle;Max_cycle;Signal;HPM_P1;HPM_P2
2022/03/15 00:00:19;;;;;;;;;;;9.10;67.90;;;;;;5040453;28;19940;-71
2022/03/15 00:02:45;;;;;;;;;;;9.10;68.00;;;;;;5043378;28;19932;-71
2022/03/15 00:05:12;;;;;;;;;;;9.10;68.20;;;;;;5043742;28;21058;-72
2022/03/15 00:07:39;;;;;;;;;;;9.10;68.20;;;;;;5049892;28;19929;-71
2022/03/15 00:10:06;;;;;;;;;;;9.00;68.30;;;;;;5047238;28;19936;-71
2022/03/15 00:12:34;;;;;;;;;;;9.00;68.30;;;;;;5050307;28;19928;-71
2022/03/15 00:15:02;;;;;;;;;;;9.00;68.40;;;;;;5046802;28;20304;-71
2022/03/15 00:17:30;;;;;;;;;;;9.00;68.40;;;;;;5052833;28;19933;-71
2022/03/15 00:19:57;;;;;;;;;;;8.90;68.40;;;;;;5044655;28;19940;-71
2022/03/15 00:22:23;;;;;;;;;;;8.90;68.50;;;;;;5043677;28;19932;-71
2022/03/15 00:24:51;;;;;;;;;;;8.90;68.50;;;;;;5048375;28;20442;-71
2022/03/15 00:27:18;;;;;;;;;;;8.90;68.60;;;;;;5045780;28;19932;-72
2022/03/15 00:29:46;;;;;;;;;;;8.90;68.60;;;;;;5051142;28;19939;-72
2022/03/15 00:32:19;;;;;;;;;;;8.90;68.70;;;;;;5047435;28;20023;-72
2022/03/15 00:34:46;;;;;;;;;;;8.80;68.70;;;;;;5046637;28;19932;-71
2022/03/15 00:37:13;;;;;;;;;;;8.80;68.80;;;;;;5047825;28;19939;-71
2022/03/15 00:39:39;;;;;;;;;;;8.80;68.80;;;;;;5046794;28;19935;-71
2022/03/15 00:42:06;;;;;;;;;;;8.80;68.90;;;;;;5045433;28;19937;-71
2022/03/15 00:44:32;;;;;;;;;;;8.80;69.00;;;;;;5044459;28;19933;-71
2022/03/15 00:46:59;;;;;;;;;;;8.70;69.00;;;;;;5050016;28;19944;-72
2022/03/15 00:49:27;;;;;;;;;;;8.70;69.10;;;;;;5049576;28;19947;-71
2022/03/15 00:51:53;;;;;;;;;;;8.70;69.20;;;;;;5043772;28;19949;-72
2022/03/15 00:54:21;;;;;;;;;;;8.70;69.10;;;;;;5046576;28;19935;-71
2022/03/15 00:56:47;;;;;;;;;;;8.60;69.30;;;;;;5045395;28;19929;-71
2022/03/15 00:59:15;;;;;;;;;;;8.60;69.30;;;;;;5048418;28;19929;-71
2022/03/15 01:01:42;;;;;;;;;;;8.60;69.40;;;;;;5048446;28;19989;-71
2022/03/15 01:04:08;;;;;;;;;;;8.60;69.50;;;;;;5047977;28;19929;-72
2022/03/15 01:06:37;;;;;;;;;;;8.50;69.60;;;;;;5046961;28;19932;-71
2022/03/15 01:09:04;;;;;;;;;;;8.60;69.60;;;;;;5048094;28;19929;-71
2022/03/15 01:11:30;;;;;;;;;;;8.50;69.60;;;;;;5046155;28;19952;-71
2022/03/15 01:13:57;;;;;;;;;;;8.50;69.80;;;;;;5046864;28;20015;-71
2022/03/15 01:16:24;;;;;;;;;;;8.50;69.80;;;;;;5043581;28;19936;-71
2022/03/15 01:18:50;;;;;;;;;;;8.50;69.80;;;;;;5043701;28;19983;-71
2022/03/15 01:21:18;;;;;;;;;;;8.40;70.00;;;;;;5042526;28;19955;-72
2022/03/15 01:23:46;;;;;;;;;;;8.40;70.20;;;;;;5049761;28;20399;-71
2022/03/15 01:26:13;;;;;;;;;;;8.40;70.10;;;;;;5042157;28;19933;-71
2022/03/15 01:28:40;;;;;;;;;;;8.40;70.10;;;;;;5042941;28;19940;-71
2022/03/15 01:31:07;;;;;;;;;;;8.40;70.20;;;;;;5046113;28;20316;-71
2022/03/15 01:33:33;;;;;;;;;;;8.40;70.20;;;;;;5043037;28;19929;-71
2022/03/15 01:36:00;;;;;;;;;;;8.40;70.30;;;;;;5047401;28;19932;-71
2022/03/15 01:38:26;;;;;;;;;;;8.30;70.20;;;;;;5044017;28;20393;-70
2022/03/15 01:40:54;;;;;;;;;;;8.30;70.30;;;;;;5044233;28;19933;-72
2022/03/15 01:43:21;;;;;;;;;;;8.30;70.40;;;;;;5044235;28;19929;-71
2022/03/15 01:45:47;;;;;;;;;;;8.30;70.40;;;;;;5042285;28;19936;-71
2022/03/15 01:48:14;;;;;;;;;;;8.30;70.50;;;;;;5045916;28;19929;-71
2022/03/15 01:50:40;;;;;;;;;;;8.20;70.50;;;;;;5044329;28;19936;-71
2022/03/15 01:53:07;;;;;;;;;;;8.20;70.50;;;;;;5046511;28;19929;-71
2022/03/15 01:55:35;;;;;;;;;;;8.20;70.50;;;;;;5047797;28;19936;-71
2022/03/15 01:58:03;;;;;;;;;;;8.20;70.60;;;;;;5053020;28;19943;-71
2022/03/15 02:00:31;;;;;;;;;;;8.20;70.80;;;;;;5048943;28;19928;-71
2022/03/15 02:02:58;;;;;;;;;;;8.20;70.80;;;;;;5047478;28;19936;-71
2022/03/15 02:05:24;;;;;;;;;;;8.20;70.90;;;;;;5051266;28;19929;-71
2022/03/15 02:07:51;;;;;;;;;;;8.20;70.90;;;;;;5050595;28;19980;-71
2022/03/15 02:10:17;;;;;;;;;;;8.10;70.80;;;;;;5052173;28;19936;-71
2022/03/15 02:12:44;;;;;;;;;;;8.10;71.00;;;;;;5046651;28;19932;-71
2022/03/15 02:15:12;;;;;;;;;;;8.10;71.10;;;;;;5045473;28;19928;-71
2022/03/15 02:17:39;;;;;;;;;;;8.10;71.20;;;;;;5044222;28;19929;-72
2022/03/15 02:20:07;;;;;;;;;;;8.10;71.10;;;;;;5045462;28;19990;-71
2022/03/15 02:22:34;;;;;;;;;;;8.10;71.30;;;;;;5043598;28;19952;-71
2022/03/15 02:25:00;;;;;;;;;;;8.10;71.30;;;;;;5045331;28;19929;-72
2022/03/15 02:27:27;;;;;;;;;;;8.00;71.30;;;;;;5047999;28;19963;-71
2022/03/15 02:29:53;;;;;;;;;;;8.00;71.40;;;;;;5047993;28;20148;-71
2022/03/15 02:32:21;;;;;;;;;;;8.00;71.40;;;;;;5052671;28;20464;-71
2022/03/15 02:34:47;;;;;;;;;;;8.00;71.50;;;;;;5046952;28;19935;-72
2022/03/15 02:37:15;;;;;;;;;;;8.00;71.50;;;;;;5049388;28;19939;-71
2022/03/15 02:39:42;;;;;;;;;;;8.00;72.30;;;;;;5050815;28;20074;-71
2022/03/15 02:42:09;;;;;;;;;;;8.00;71.50;;;;;;5050861;28;20007;-71
2022/03/15 02:44:35;;;;;;;;;;;8.00;71.60;;;;;;5052494;28;19990;-72
2022/03/15 02:47:02;;;;;;;;;;;8.00;71.60;;;;;;5049190;28;19928;-71
2022/03/15 02:49:29;;;;;;;;;;;7.90;71.60;;;;;;5045534;28;19935;-72
2022/03/15 02:51:55;;;;;;;;;;;8.00;71.70;;;;;;5043389;28;19935;-71
2022/03/15 02:54:23;;;;;;;;;;;7.90;71.60;;;;;;5050002;28;19932;-71
2022/03/15 02:56:50;;;;;;;;;;;7.90;71.70;;;;;;5046849;28;19939;-71
2022/03/15 02:59:17;;;;;;;;;;;7.90;71.80;;;;;;5051958;28;20506;-71
2022/03/15 03:01:44;;;;;;;;;;;7.90;71.80;;;;;;5048557;28;19932;-71
2022/03/15 03:04:11;;;;;;;;;;;7.90;71.90;;;;;;5048660;28;19931;-71
2022/03/15 03:06:38;;;;;;;;;;;7.90;71.90;;;;;;5052606;28;19932;-71
2022/03/15 03:09:05;;;;;;;;;;;7.90;72.00;;;;;;5046225;28;20408;-71
2022/03/15 03:11:33;;;;;;;;;;;7.80;71.90;;;;;;5051213;28;20454;-71
2022/03/15 03:14:00;;;;;;;;;;;7.80;72.00;;;;;;5048773;28;19928;-71
2022/03/15 03:16:28;;;;;;;;;;;7.80;72.00;;;;;;5047469;28;20040;-71
2022/03/15 03:18:58;;;;;;;;;;;7.80;72.00;;;;;;5045399;28;19932;-71
2022/03/15 03:21:25;;;;;;;;;;;7.80;72.10;;;;;;5045522;28;19932;-71
2022/03/15 03:23:53;;;;;;;;;;;7.80;72.20;;;;;;5046789;28;19956;-71
2022/03/15 03:26:20;;;;;;;;;;;7.70;72.10;;;;;;5044717;28;19932;-72
2022/03/15 03:28:48;;;;;;;;;;;7.70;72.20;;;;;;5042129;28;20717;-71
2022/03/15 03:31:15;;;;;;;;;;;7.70;72.10;;;;;;5047838;28;19990;-71
2022/03/15 03:33:42;;;;;;;;;;;7.70;72.10;;;;;;5044055;28;19976;-71
2022/03/15 03:36:09;;;;;;;;;;;7.70;72.20;;;;;;5044767;28;19929;-71
2022/03/15 03:38:36;;;;;;;;;;;7.70;72.30;;;;;;5046621;28;20435;-71
2022/03/15 03:41:03;;;;;;;;;;;7.70;72.40;;;;;;5048784;28;20404;-71
2022/03/15 03:43:31;;;;;;;;;;;7.70;72.40;;;;;;5045988;28;20039;-71
2022/03/15 03:45:59;;;;;;;;;;;7.70;72.60;;;;;;5047758;28;20021;-71
2022/03/15 03:48:26;;;;;;;;;;;7.60;72.50;;;;;;5047409;28;19933;-70
2022/03/15 03:50:53;;;;;;;;;;;7.60;72.50;;;;;;5046693;28;19925;-71
2022/03/15 03:53:21;;;;;;;;;;;7.60;72.60;;;;;;5044956;28;19925;-71
2022/03/15 03:55:47;;;;;;;;;;;7.60;72.60;;;;;;5049451;28;20020;-71
2022/03/15 03:58:14;;;;;;;;;;;7.60;72.70;;;;;;5045266;28;20624;-70
2022/03/15 04:00:40;;;;;;;;;;;7.60;72.70;;;;;;5047602;28;19935;-71
2022/03/15 04:03:09;;;;;;;;;;;7.60;72.70;;;;;;5042597;28;19928;-71
2022/03/15 04:05:40;;;;;;;;;;;7.60;72.80;;;;;;5048596;28;20300;-71
2022/03/15 04:08:06;;;;;;;;;;;7.60;72.80;;;;;;5044014;28;19928;-71
2022/03/15 04:10:34;;;;;;;;;;;7.60;73.00;;;;;;5045494;28;19954;-71
2022/03/15 04:13:02;;;;;;;;;;;7.60;73.00;;;;;;5042969;28;19936;-71
2022/03/15 04:15:30;;;;;;;;;;;7.50;72.90;;;;;;5047035;28;20662;-70
2022/03/15 04:17:57;;;;;;;;;;;7.50;72.90;;;;;;5045339;28;20020;-71
2022/03/15 04:20:24;;;;;;;;;;;7.50;73.10;;;;;;5048201;28;20734;-71
2022/03/15 04:22:51;;;;;;;;;;;7.50;73.00;;;;;;5047850;28;19933;-71
2022/03/15 04:25:19;;;;;;;;;;;7.50;73.20;;;;;;5043754;28;19929;-71
2022/03/15 04:27:46;;;;;;;;;;;7.50;73.20;;;;;;5041474;28;19936;-71
2022/03/15 04:30:14;;;;;;;;;;;7.50;73.30;;;;;;5041836;28;19929;-71
2022/03/15 04:32:40;;;;;;;;;;;7.40;73.30;;;;;;5041409;28;19940;-71
2022/03/15 04:35:07;;;;;;;;;;;7.40;73.30;;;;;;5040616;28;19958;-71
2022/03/15 04:37:35;;;;;;;;;;;7.40;73.40;;;;;;5044173;28;20152;-71
2022/03/15 04:40:02;;;;;;;;;;;7.50;73.40;;;;;;5044233;28;19928;-71
2022/03/15 04:42:28;;;;;;;;;;;7.40;73.40;;;;;;5044636;28;19929;-72
2022/03/15 04:44:55;;;;;;;;;;;7.40;73.40;;;;;;5044915;28;20273;-71
2022/03/15 04:47:22;;;;;;;;;;;7.40;74.10;;;;;;5045885;28;20399;-71
2022/03/15 04:49:49;;;;;;;;;;;7.40;73.50;;;;;;5042036;28;19974;-72
2022/03/15 04:52:16;;;;;;;;;;;7.40;73.60;;;;;;5044549;28;19937;-71
2022/03/15 04:54:44;;;;;;;;;;;7.40;73.70;;;;;;5049251;28;20031;-71
2022/03/15 04:57:11;;;;;;;;;;;7.40;73.60;;;;;;5043515;28;19935;-71
2022/03/15 04:59:37;;;;;;;;;;;7.40;73.60;;;;;;5044179;28;19928;-71
2022/03/15 05:02:04;;;;;;;;;;;7.40;73.60;;;;;;5048121;28;19932;-71
2022/03/15 05:04:30;;;;;;;;;;;7.40;73.70;;;;;;5043607;28;20412;-71
2022/03/15 05:06:57;;;;;;;;;;;7.40;73.70;;;;;;5043960;28;19998;-71
2022/03/15 05:09:24;;;;;;;;;;;7.30;73.80;;;;;;5044706;28;19935;-71
2022/03/15 05:11:51;;;;;;;;;;;7.30;73.80;;;;;;5048115;28;20393;-71
2022/03/15 05:14:18;;;;;;;;;;;7.30;73.90;;;;;;5042170;28;19935;-72
2022/03/15 05:16:44;;;;;;;;;;;7.30;74.60;;;;;;5046590;28;19939;-71
2022/03/15 05:19:11;;;;;;;;;;;7.30;73.90;;;;;;5042586;28;19936;-71
2022/03/15 05:21:38;;;;;;;;;;;7.30;74.70;;;;;;5043786;28;20012;-71
2022/03/15 05:24:05;;;;;;;;;;;7.30;74.10;;;;;;5046833;28;20416;-72
2022/03/15 05:26:31;;;;;;;;;;;7.30;74.10;;;;;;5046611;28;20011;-70
2022/03/15 05:28:59;;;;;;;;;;;7.30;74.10;;;;;;5048383;28;19935;-71
2022/03/15 05:31:28;;;;;;;;;;;7.30;74.40;;;;;;5049551;28;19955;-71
2022/03/15 05:33:55;;;;;;;;;;;7.30;74.20;;;;;;5045745;28;20127;-71
2022/03/15 05:36:22;;;;;;;;;;;7.20;74.20;;;;;;5052631;28;19929;-72
2022/03/15 05:38:48;;;;;;;;;;;7.20;74.20;;;;;;5054162;28;19932;-71
2022/03/15 05:41:15;;;;;;;;;;;7.20;74.20;;;;;;5053470;28;19933;-71
2022/03/15 05:43:41;;;;;;;;;;;7.20;74.30;;;;;;5048232;28;20395;-71
2022/03/15 05:46:09;;;;;;;;;;;7.20;74.30;;;;;;5046106;28;19948;-71
2022/03/15 05:48:36;;;;;;;;;;;7.20;75.00;;;;;;5045521;28;19929;-71
2022/03/15 05:51:02;;;;;;;;;;;7.20;74.30;;;;;;5051038;28;19935;-71
2022/03/15 05:53:29;;;;;;;;;;;7.20;74.30;;;;;;5052034;28;19929;-71
2022/03/15 05:55:56;;;;;;;;;;;7.20;74.30;;;;;;5049523;28;19935;-71
2022/03/15 05:58:22;;;;;;;;;;;7.20;74.40;;;;;;5054077;28;20125;-71
2022/03/15 06:00:51;;;;;;;;;;;7.20;74.40;;;;;;5048290;28;20321;-72
2022/03/15 06:03:18;;;;;;;;;;;7.10;74.40;;;;;;5047887;28;19937;-73
2022/03/15 06:05:45;;;;;;;;;;;7.10;74.40;;;;;;5048769;28;19932;-71
2022/03/15 06:08:12;;;;;;;;;;;7.10;74.40;;;;;;5049808;28;20490;-71
2022/03/15 06:10:38;;;;;;;;;;;7.10;74.40;;;;;;5049527;28;20384;-72
2022/03/15 06:13:05;;;;;;;;;;;7.10;74.40;;;;;;5047187;28;19966;-71
2022/03/15 06:15:31;;;;;;;;;;;7.10;74.50;;;;;;5044085;28;20289;-71
2022/03/15 06:18:00;;;;;;;;;;;7.10;74.50;;;;;;5043602;28;19924;-73
2022/03/15 06:20:28;;;;;;;;;;;7.10;74.50;;;;;;5040822;28;19925;-72
2022/03/15 06:22:55;;;;;;;;;;;7.10;76.50;;;;;;5042753;28;19932;-72
2022/03/15 06:25:22;;;;;;;;;;;7.10;77.60;;;;;;5049245;28;20010;-72
2022/03/15 06:27:49;;;;;;;;;;;7.00;76.60;;;;;;5043990;28;20688;-66
2022/03/15 06:30:16;;;;;;;;;;;7.10;76.70;;;;;;5048088;28;19968;-66
2022/03/15 06:32:43;;;;;;;;;;;7.00;76.70;;;;;;5045394;28;20235;-66
2022/03/15 06:35:12;;;;;;;;;;;7.00;76.10;;;;;;5046307;28;19928;-66
2022/03/15 06:37:42;;;;;;;;;;;6.90;76.60;;;;;;5044612;28;19959;-67
2022/03/15 06:40:09;;;;;;;;;;;6.90;76.60;;;;;;5042282;28;20059;-66
2022/03/15 06:42:36;;;;;;;;;;;6.90;76.50;;;;;;5050176;28;19936;-67
2022/03/15 06:45:03;;;;;;;;;;;6.90;75.70;;;;;;5049249;28;20749;-66
2022/03/15 06:47:30;;;;;;;;;;;6.90;76.30;;;;;;5051665;28;19928;-66
2022/03/15 06:49:56;;;;;;;;;;;6.90;76.30;;;;;;5046412;28;19937;-66
2022/03/15 06:52:23;;;;;;;;;;;6.90;76.30;;;;;;5045240;28;19951;-66
2022/03/15 06:54:51;;;;;;;;;;;6.90;76.20;;;;;;5051354;28;19928;-66
2022/03/15 06:57:17;;;;;;;;;;;6.90;76.30;;;;;;5045098;28;19929;-67
2022/03/15 06:59:44;;;;;;;;;;;6.90;76.20;;;;;;5047174;28;19933;-66
2022/03/15 07:02:13;;;;;;;;;;;6.90;76.20;;;;;;5048892;28;19928;-66
2022/03/15 07:04:40;;;;;;;;;;;6.90;75.50;;;;;;5045384;28;19944;-66
2022/03/15 07:07:06;;;;;;;;;;;6.90;76.10;;;;;;5047636;28;19932;-66
2022/03/15 07:09:33;;;;;;;;;;;6.90;76.20;;;;;;5042219;28;20007;-66
2022/03/15 07:12:01;;;;;;;;;;;6.90;76.30;;;;;;5052672;28;19929;-66
2022/03/15 07:14:27;;;;;;;;;;;6.90;75.90;;;;;;5048548;28;19928;-66
2022/03/15 07:16:54;;;;;;;;;;;6.90;75.90;;;;;;5049877;28;19928;-66
2022/03/15 07:19:20;;;;;;;;;;;6.90;76.40;;;;;;5040409;28;19936;-66
2022/03/15 07:21:47;;;;;;;;;;;6.90;76.40;;;;;;5046506;28;19929;-66
2022/03/15 07:24:13;;;;;;;;;;;6.90;75.80;;;;;;5045318;28;19929;-67
2022/03/15 07:26:40;;;;;;;;;;;6.90;75.80;;;;;;5044705;28;19925;-66
2022/03/15 07:29:08;;;;;;;;;;;7.00;76.50;;;;;;5044801;28;19929;-66
2022/03/15 07:31:34;;;;;;;;;;;7.00;76.50;;;;;;5044224;28;19929;-67
2022/03/15 07:34:01;;;;;;;;;;;6.90;75.90;;;;;;5045284;28;19935;-67
2022/03/15 07:36:28;;;;;;;;;;;7.00;76.60;;;;;;5047932;28;19929;-67
2022/03/15 07:38:54;;;;;;;;;;;7.00;76.50;;;;;;5045456;28;19929;-66
2022/03/15 07:41:23;;;;;;;;;;;7.00;76.50;;;;;;5047405;28;19929;-67
2022/03/15 07:43:50;;;;;;;;;;;7.00;76.00;;;;;;5040685;28;19932;-73
2022/03/15 07:46:18;;;;;;;;;;;7.00;76.10;;;;;;5041318;28;19939;-74
2022/03/15 07:48:44;;;;;;;;;;;7.80;76.90;;;;;;5040217;28;19943;-74
2022/03/15 07:51:11;;;;;;;;;;;7.00;76.40;;;;;;5042356;28;19930;-74
2022/03/15 07:53:38;;;;;;;;;;;7.00;75.80;;;;;;5043860;28;19925;-74
2022/03/15 07:56:05;;;;;;;;;;;7.00;76.40;;;;;;5044782;28;19935;-74
2022/03/15 07:58:31;;;;;;;;;;;7.00;75.80;;;;;;5045762;28;19925;-74
2022/03/15 08:00:59;;;;;;;;;;;7.00;76.50;;;;;;5048824;28;20343;-74
2022/03/15 08:03:26;;;;;;;;;;;7.00;76.10;;;;;;5041647;28;19963;-75
2022/03/15 08:05:53;;;;;;;;;;;7.00;76.80;;;;;;5044309;28;19940;-74
2022/03/15 08:08:19;;;;;;;;;;;7.80;77.20;;;;;;5051734;28;19936;-74
2022/03/15 08:10:46;;;;;;;;;;;7.10;77.00;;;;;;5040859;28;19929;-74
2022/03/15 08:13:13;;;;;;;;;;;7.10;76.40;;;;;;5041663;28;20510;-74
2022/03/15 08:15:40;;;;;;;;;;;7.00;77.00;;;;;;5044321;28;19936;-74
2022/03/15 08:18:06;;;;;;;;;;;7.00;77.00;;;;;;5038886;28;19940;-74
2022/03/15 08:20:39;;;;;;;;;;;7.10;77.00;;;;;;5040625;28;19929;-73
2022/03/15 08:23:06;;;;;;;;;;;7.10;76.30;;;;;;5042225;28;19929;-74
2022/03/15 08:25:33;;;;;;;;;;;7.10;76.90;;;;;;5041777;28;20439;-73
2022/03/15 08:28:00;;;;;;;;;;;7.10;77.00;;;;;;5038538;28;19932;-74
2022/03/15 08:30:27;;;;;;;;;;;7.10;77.00;;;;;;5042492;28;19948;-74
2022/03/15 08:32:53;;;;;;;;;;;7.10;76.90;;;;;;5041451;28;19933;-73
2022/03/15 08:35:21;;;;;;;;;;;7.10;76.60;;;;;;5042909;28;19929;-75
2022/03/15 08:37:50;;;;;;;;;;;7.10;77.40;;;;;;5045186;28;19928;-74
2022/03/15 08:40:17;;;;;;;;;;;7.20;77.60;;;;;;5044303;28;20722;-74
2022/03/15 08:42:44;;;;;;;;;;;7.20;77.70;;;;;;5046306;28;20051;-74
2022/03/15 08:45:11;;;;;;;;;;;7.20;77.20;;;;;;5041801;28;19935;-74
2022/03/15 08:47:38;;;;;;;;;;;7.20;77.80;;;;;;5040973;28;19929;-74
2022/03/15 08:50:05;;;;;;;;;;;7.20;77.70;;;;;;5042330;28;19928;-74
2022/03/15 08:52:32;;;;;;;;;;;7.30;77.70;;;;;;5042666;28;19935;-74
2022/03/15 08:55:01;;;;;;;;;;;7.20;77.50;;;;;;5042636;28;19940;-73
2022/03/15 08:57:27;;;;;;;;;;;7.30;77.50;;;;;;5039998;28;19932;-74
2022/03/15 08:59:54;;;;;;;;;;;7.30;77.30;;;;;;5033397;28;19986;-71
2022/03/15 09:02:21;;;;;;;;;;;7.30;77.10;;;;;;5040315;28;19928;-74
2022/03/15 09:04:47;;;;;;;;;;;7.30;76.40;;;;;;5041068;28;19929;-74
2022/03/15 09:07:15;;;;;;;;;;;7.30;76.90;;;;;;5039677;28;20301;-74
2022/03/15 09:09:41;;;;;;;;;;;7.30;76.90;;;;;;5040096;28;19951;-73
2022/03/15 09:12:09;;;;;;;;;;;7.40;76.90;;;;;;5042235;28;19955;-74
2022/03/15 09:14:36;;;;;;;;;;;7.40;76.00;;;;;;5042434;28;20929;-73
2022/03/15 09:17:03;;;;;;;;;;;7.50;76.60;;;;;;5044989;28;19929;-73
2022/03/15 09:19:29;;;;;;;;;;;7.50;76.50;;;;;;5040371;28;19929;-74
2022/03/15 09:21:56;;;;;;;;;;;7.50;76.50;;;;;;5044185;28;20212;-73
2022/03/15 09:24:22;;;;;;;;;;;7.50;75.60;;;;;;5043903;28;20381;-74
2022/03/15 09:26:49;;;;;;;;;;;7.50;76.20;;;;;;5040368;28;19929;-74
2022/03/15 09:29:17;;;;;;;;;;;7.50;76.10;;;;;;5038424;28;19929;-74
2022/03/15 09:31:43;;;;;;;;;;;7.50;76.00;;;;;;5044152;28;19935;-74
2022/03/15 09:34:10;;;;;;;;;;;7.60;75.30;;;;;;5036380;28;19936;-74
2022/03/15 09:36:36;;;;;;;;;;;7.60;75.80;;;;;;5043804;28;19932;-74
2022/03/15 09:39:06;;;;;;;;;;;7.60;75.80;;;;;;5045676;28;19928;-74
2022/03/15 09:41:35;;;;;;;;;;;7.60;75.80;;;;;;5039083;28;19929;-74
2022/03/15 09:44:02;;;;;;;;;;;7.60;75.20;;;;;;5040668;28;19933;-74
2022/03/15 09:46:30;;;;;;;;;;;7.60;75.70;;;;;;5040262;28;19929;-75
2022/03/15 09:48:59;;;;;;;;;;;7.60;75.60;;;;;;5040692;28;19936;-74
2022/03/15 09:51:27;;;;;;;;;;;7.70;75.60;;;;;;5042203;28;19929;-74
2022/03/15 09:53:54;;;;;;;;;;;7.70;75.10;;;;;;5043323;28;19929;-74
2022/03/15 09:56:21;;;;;;;;;;;7.70;75.70;;;;;;5041945;28;19935;-74
2022/03/15 09:58:47;;;;;;;;;;;7.70;75.80;;;;;;5037772;28;19939;-74
2022/03/15 10:01:16;;;;;;;;;;;7.80;75.90;;;;;;5040844;28;20235;-73
2022/03/15 10:03:44;;;;;;;;;;;7.80;75.40;;;;;;5035275;28;19929;-74
2022/03/15 10:06:11;;;;;;;;;;;7.80;76.10;;;;;;5039883;28;19932;-74
2022/03/15 10:08:38;;;;;;;;;;;7.80;76.20;;;;;;5040771;28;19940;-74
2022/03/15 10:11:05;;;;;;;;;;;7.80;76.20;;;;;;5040321;28;19932;-75
2022/03/15 10:13:31;;;;;;;;;;;7.80;75.70;;;;;;5044671;28;19935;-74
2022/03/15 10:15:59;;;;;;;;;;;7.80;76.30;;;;;;5044644;28;19932;-74
2022/03/15 10:18:26;;;;;;;;;;;7.80;76.30;;;;;;5041035;28;19935;-74
2022/03/15 10:20:54;;;;;;;;;;;7.80;76.20;;;;;;5044317;28;19929;-74
2022/03/15 10:23:29;;;;;;;;;;;7.90;76.20;;;;;;5045237;28;19928;-75
2022/03/15 10:25:56;;;;;;;;;;;7.90;76.10;;;;;;5043697;28;19933;-74
2022/03/15 10:28:23;;;;;;;;;;;7.90;76.10;;;;;;5041091;28;19929;-75
2022/03/15 10:30:50;;;;;;;;;;;7.90;76.10;;;;;;5043895;28;20400;-75
2022/03/15 10:33:18;;;;;;;;;;;7.90;76.10;;;;;;5047798;28;20381;-74
2022/03/15 10:35:46;;;;;;;;;;;7.90;76.10;;;;;;5045637;28;20011;-75
2022/03/15 10:38:14;;;;;;;;;;;9.90;77.40;;;;;;5045110;28;20295;-74
2022/03/15 10:40:42;;;;;;;;;;;7.90;76.30;;;;;;5046220;28;20427;-75
2022/03/15 10:43:09;;;;;;;;;;;8.00;75.70;;;;;;5044509;28;20602;-75
2022/03/15 10:45:37;;;;;;;;;;;7.90;76.20;;;;;;5043411;28;19939;-75
2022/03/15 10:48:14;;;;;;;;;;;8.00;76.30;;;;;;5043477;28;19939;-75
2022/03/15 10:50:49;;;;;;;;;;;8.00;76.40;;;;;;5046885;28;20356;-74
2022/03/15 10:53:17;;;;;;;;;;;9.80;77.50;;;;;;5039435;28;20342;-75
2022/03/15 10:55:44;;;;;;;;;;;8.00;76.70;;;;;;5044428;28;19924;-75
2022/03/15 10:58:12;;;;;;;;;;;8.00;76.70;;;;;;5041229;28;19933;-75
2022/03/15 11:00:40;;;;;;;;;;;8.00;76.70;;;;;;5044364;28;19924;-75
2022/03/15 11:03:09;;;;;;;;;;;8.00;76.30;;;;;;5042520;28;20448;-75
2022/03/15 11:05:36;;;;;;;;;;;8.00;76.90;;;;;;5044891;28;20750;-75
2022/03/15 11:08:04;;;;;;;;;;;8.10;76.90;;;;;;5043259;28;20408;-75
2022/03/15 11:10:32;;;;;;;;;;;8.10;76.80;;;;;;5043430;28;19936;-75
2022/03/15 11:13:02;;;;;;;;;;;8.10;76.90;;;;;;5041449;28;19939;-75
2022/03/15 11:15:30;;;;;;;;;;;8.10;76.50;;;;;;5046250;28;19929;-74
2022/03/15 11:17:58;;;;;;;;;;;8.10;77.30;;;;;;5042806;28;19945;-75
2022/03/15 11:20:25;;;;;;;;;;;8.10;77.50;;;;;;5045404;28;20412;-75
2022/03/15 11:22:52;;;;;;;;;;;8.10;77.60;;;;;;5045440;28;19936;-75
2022/03/15 11:25:21;;;;;;;;;;;8.10;77.10;;;;;;5044291;28;20023;-75
2022/03/15 11:27:52;;;;;;;;;;;8.10;77.70;;;;;;5042236;28;19933;-75
2022/03/15 11:30:19;;;;;;;;;;;8.20;77.70;;;;;;5046403;28;19933;-75
2022/03/15 11:32:46;;;;;;;;;;;8.10;77.50;;;;;;5041963;28;19961;-75
2022/03/15 11:35:14;;;;;;;;;;;8.10;76.80;;;;;;5042345;28;19928;-75
2022/03/15 11:37:41;;;;;;;;;;;8.20;77.40;;;;;;5040857;28;19935;-74
2022/03/15 11:40:09;;;;;;;;;;;8.20;77.30;;;;;;5040030;28;19932;-75
2022/03/15 11:42:40;;;;;;;;;;;8.20;77.40;;;;;;5045472;28;19958;-75
2022/03/15 11:45:15;;;;;;;;;;;8.20;76.70;;;;;;5039088;28;19929;-74
2022/03/15 11:47:46;;;;;;;;;;;8.20;77.30;;;;;;5047523;28;19928;-74
2022/03/15 11:50:19;;;;;;;;;;;8.20;77.40;;;;;;5041084;28;19936;-75
2022/03/15 11:52:52;;;;;;;;;;;8.20;77.40;;;;;;5043648;28;19929;-74
2022/03/15 11:55:20;;;;;;;;;;;8.20;76.90;;;;;;5046641;28;19929;-74
2022/03/15 11:57:49;;;;;;;;;;;8.30;77.50;;;;;;5044099;28;20462;-75
2022/03/15 12:00:30;;;;;;;;;;;8.30;77.50;;;;;;5045051;28;19932;-74
2022/03/15 12:02:58;;;;;;;;;;;8.30;77.40;;;;;;5046160;28;19964;-74
2022/03/15 12:05:25;;;;;;;;;;;8.30;76.70;;;;;;5046094;28;19928;-74
2022/03/15 12:08:11;;;;;;;;;;;8.30;77.30;;;;;;5044105;28;20341;-74
2022/03/15 12:10:38;;;;;;;;;;;8.30;77.30;;;;;;5045165;28;19974;-74
2022/03/15 12:13:05;;;;;;;;;;;8.40;76.90;;;;;;5043461;28;19935;-74
2022/03/15 12:15:38;;;;;;;;;;;8.40;77.50;;;;;;5043394;28;19933;-74
2022/03/15 12:18:09;;;;;;;;;;;8.40;77.50;;;;;;5044878;28;19952;-74
2022/03/15 12:20:43;;;;;;;;;;;8.40;77.70;;;;;;5049147;28;19928;-74
2022/03/15 12:23:16;;;;;;;;;;;8.40;77.20;;;;;;5039216;28;20569;-74
2022/03/15 12:25:51;;;;;;;;;;;8.40;77.70;;;;;;5048660;28;19929;-74
2022/03/15 12:28:26;;;;;;;;;;;8.40;77.90;;;;;;5043343;28;20485;-74
2022/03/15 12:30:53;;;;;;;;;;;8.50;78.00;;;;;;5043564;28;19936;-74
2022/03/15 12:33:25;;;;;;;;;;;8.40;77.60;;;;;;5041912;28;20404;-73
2022/03/15 12:35:58;;;;;;;;;;;8.40;78.20;;;;;;5042560;28;19960;-74
2022/03/15 12:38:32;;;;;;;;;;;8.50;78.30;;;;;;5045399;28;20611;-74
2022/03/15 12:40:59;;;;;;;;;;;8.50;78.40;;;;;;5041622;28;20544;-74
2022/03/15 12:43:25;;;;;;;;;;;8.50;77.70;;;;;;5042708;28;20388;-74
2022/03/15 12:45:53;;;;;;;;;;;8.50;78.30;;;;;;5042704;28;20312;-74
2022/03/15 12:48:28;;;;;;;;;;;8.50;78.50;;;;;;5046386;28;19940;-74
2022/03/15 12:50:57;;;;;;;;;;;8.60;78.50;;;;;;5046281;28;19932;-74
2022/03/15 12:53:33;;;;;;;;;;;8.60;78.10;;;;;;5042690;28;20392;-75
2022/03/15 12:56:02;;;;;;;;;;;8.60;78.70;;;;;;5044137;28;22567;-74
2022/03/15 12:58:29;;;;;;;;;;;8.60;78.80;;;;;;5044156;28;19943;-75
2022/03/15 13:00:57;;;;;;;;;;;8.60;79.50;;;;;;5047191;28;20013;-75
2022/03/15 13:03:23;;;;;;;;;;;8.70;78.60;;;;;;5043578;28;19928;-76
2022/03/15 13:05:52;;;;;;;;;;;8.70;78.50;;;;;;5045829;28;19929;-75
2022/03/15 13:08:20;;;;;;;;;;;8.80;78.80;;;;;;5042793;28;20020;-68
2022/03/15 13:10:47;;;;;;;;;;;8.80;78.60;;;;;;5044977;28;19935;-69
2022/03/15 13:13:27;;;;;;;;;;;8.90;78.20;;;;;;5045437;28;19937;-68
2022/03/15 13:15:56;;;;;;;;;;;8.90;78.80;;;;;;5047738;28;19933;-68
2022/03/15 13:18:26;;;;;;;;;;;9.00;78.70;;;;;;5039901;28;19936;-68
2022/03/15 13:21:01;;;;;;;;;;;9.00;78.80;;;;;;5047692;28;19932;-68
2022/03/15 13:23:28;;;;;;;;;;;9.10;78.80;;;;;;5046179;28;19984;-68
2022/03/15 13:26:01;;;;;;;;;;;9.10;79.40;;;;;;5045756;28;20439;-67
2022/03/15 13:28:29;;;;;;;;;;;9.30;79.70;;;;;;5042593;28;19952;-67
2022/03/15 13:30:57;;;;;;;;;;;9.10;79.50;;;;;;5047000;28;19944;-67
2022/03/15 13:33:32;;;;;;;;;;;9.20;79.00;;;;;;5041270;28;19929;-68
2022/03/15 13:36:00;;;;;;;;;;;9.20;79.50;;;;;;5042897;28;20567;-68
2022/03/15 13:38:28;;;;;;;;;;;9.20;80.00;;;;;;5043295;28;19928;-67
2022/03/15 13:40:55;;;;;;;;;;;9.30;79.20;;;;;;5046945;28;19932;-68
2022/03/15 13:43:23;;;;;;;;;;;9.30;78.40;;;;;;5045416;28;19932;-68
2022/03/15 13:45:50;;;;;;;;;;;9.30;79.00;;;;;;5045356;28;19929;-68
2022/03/15 13:48:25;;;;;;;;;;;9.30;79.00;;;;;;5045443;28;20054;-67
2022/03/15 13:50:58;;;;;;;;;;;9.40;79.10;;;;;;5051540;28;20473;-68
2022/03/15 13:53:25;;;;;;;;;;;9.40;78.60;;;;;;5047327;28;20439;-68
2022/03/15 13:55:53;;;;;;;;;;;9.40;79.10;;;;;;5050926;28;19967;-68
2022/03/15 13:58:28;;;;;;;;;;;9.40;79.30;;;;;;5052350;28;20079;-68
2022/03/15 14:01:03;;;;;;;;;;;9.40;79.20;;;;;;5044920;28;20381;-69
2022/03/15 14:03:32;;;;;;;;;;;9.50;78.50;;;;;;5049967;28;20297;-68
2022/03/15 14:06:04;;;;;;;;;;;9.50;79.10;;;;;;5045919;28;19935;-67
2022/03/15 14:08:41;;;;;;;;;;;9.50;79.20;;;;;;5049953;28;19932;-68
2022/03/15 14:11:09;;;;;;;;;;;9.50;79.20;;;;;;5054431;28;19929;-69
2022/03/15 14:13:36;;;;;;;;;;;9.50;78.70;;;;;;5050768;28;20619;-68
2022/03/15 14:16:07;;;;;;;;;;;9.50;79.30;;;;;;5051394;28;19933;-69
2022/03/15 14:18:35;;;;;;;;;;;9.50;79.50;;;;;;5049878;28;19924;-68
2022/03/15 14:21:02;;;;;;;;;;;9.60;79.80;;;;;;5050098;28;20073;-68
2022/03/15 14:23:30;;;;;;;;;;;9.60;79.70;;;;;;5050180;28;20014;-68
2022/03/15 14:26:00;;;;;;;;;;;9.60;80.40;;;;;;5047317;28;19933;-68
2022/03/15 14:28:28;;;;;;;;;;;9.60;80.60;;;;;;5044650;28;19932;-72
2022/03/15 14:31:01;;;;;;;;;;;10.90;81.70;;;;;;5046059;28;19935;-72
2022/03/15 14:33:27;;;;;;;;;;;9.60;80.50;;;;;;5045248;28;19929;-72